Time;durP1;ratioP1;P1;durP2;ratioP2;P2;SDS_P1;SDS_P2;PMS_P1;PMS_P2;Temp;Humidity;BMP_temperature;BMP_pressure;BME280_temperature;BME280_humidity;BME280_pressure;Samples;Min_cycle;Max_cycle;Signal;HPM_P1;HPM_P2
2022/07/25 00:00:44;;;;;;;9.00;8.02;;;;;;;27.30;62.80;94731.53;5053848;28;20183;-82
2022/07/25 00:03:11;;;;;;;9.68;8.35;;;;;;;26.88;62.49;94665.50;5054369;28;20659;-81
2022/07/25 00:05:38;;;;;;;9.13;8.23;;;;;;;27.14;62.04;94708.72;5054488;28;20198;-81
2022/07/25 00:08:06;;;;;;;9.38;8.48;;;;;;;27.25;62.37;94721.75;5054921;28;20187;-81
2022/07/25 00:10:33;;;;;;;9.57;7.80;;;;;;;27.25;62.00;94728.84;5054459;28;20214;-81
2022/07/25 00:13:00;;;;;;;9.93;8.00;;;;;;;27.23;61.64;94717.78;5055100;28;20190;-81
2022/07/25 00:15:27;;;;;;;9.40;8.50;;;;;;;27.21;61.74;94725.91;5055073;28;20201;-80
2022/07/25 00:17:55;;;;;;;8.93;8.02;;;;;;;27.19;61.77;94725.34;5056275;28;20621;-83
2022/07/25 00:20:22;;;;;;;11.15;8.25;;;;;;;27.17;62.18;94718.75;5055557;28;20191;-83
2022/07/25 00:22:49;;;;;;;9.40;8.40;;;;;;;27.16;62.18;94730.25;5058853;28;20195;-82
2022/07/25 00:25:16;;;;;;;11.27;7.70;;;;;;;27.17;61.82;94732.66;5069226;28;20195;-82
2022/07/25 00:27:43;;;;;;;10.15;8.13;;;;;;;27.18;61.71;94721.13;5069615;28;20191;-80
2022/07/25 00:30:11;;;;;;;8.43;7.72;;;;;;;26.21;61.67;94572.66;5068813;28;20230;-81
2022/07/25 00:32:38;;;;;;;9.20;7.85;;;;;;;27.12;61.78;94714.22;5054265;28;20572;-82
2022/07/25 00:35:06;;;;;;;12.15;8.40;;;;;;;27.10;62.72;94708.41;5052930;28;20191;-81
2022/07/25 00:37:33;;;;;;;9.52;8.32;;;;;;;26.65;62.67;94642.88;5054069;28;20230;-81
2022/07/25 00:40:00;;;;;;;10.98;8.15;;;;;;;26.80;63.00;94656.22;5053531;28;20195;-81
2022/07/25 00:42:27;;;;;;;10.50;8.43;;;;;;;26.78;63.54;94658.28;5053081;28;20556;-82
2022/07/25 00:44:54;;;;;;;9.55;8.15;;;;;;;27.02;63.53;94701.69;5053124;28;20187;-82
2022/07/25 00:47:21;;;;;;;9.02;8.15;;;;;;;27.00;63.97;94698.53;5052547;28;20202;-81
2022/07/25 00:49:48;;;;;;;12.00;9.27;;;;;;;26.99;63.90;94704.03;5052678;28;20218;-81
2022/07/25 00:52:16;;;;;;;9.75;8.35;;;;;;;26.96;63.68;94691.38;5052645;28;20190;-82
2022/07/25 00:54:43;;;;;;;10.55;8.55;;;;;;;26.20;63.44;94593.84;5052624;28;20289;-81
2022/07/25 00:57:10;;;;;;;10.43;9.13;;;;;;;26.93;63.43;94704.97;5051992;28;20202;-82
2022/07/25 00:59:37;;;;;;;10.02;9.13;;;;;;;26.90;63.36;94698.38;5052419;28;20201;-82
2022/07/25 01:02:04;;;;;;;9.20;8.30;;;;;;;26.87;63.60;94701.47;5052767;28;20197;-82
2022/07/25 01:04:31;;;;;;;10.02;8.63;;;;;;;26.86;63.38;94705.13;5052799;28;20194;-83
2022/07/25 01:06:59;;;;;;;9.43;8.68;;;;;;;26.83;63.60;94699.56;5054505;28;20649;-81
2022/07/25 01:09:28;;;;;;;12.05;8.75;;;;;;;25.80;63.98;94544.97;5053437;28;20215;-82
2022/07/25 01:11:54;;;;;;;9.50;8.70;;;;;;;26.21;63.76;94608.56;5052300;28;20201;-82
2022/07/25 01:14:22;;;;;;;10.65;8.50;;;;;;;26.77;64.20;94696.06;5052053;28;20205;-82
2022/07/25 01:16:48;;;;;;;13.63;8.80;;;;;;;26.62;63.67;94673.00;5052091;28;20191;-81
2022/07/25 01:19:15;;;;;;;9.32;8.48;;;;;;;26.73;63.87;94695.75;5051557;28;20234;-82
2022/07/25 01:21:44;;;;;;;11.20;9.07;;;;;;;25.95;64.14;94579.31;5052527;28;20179;-82
2022/07/25 01:24:11;;;;;;;9.55;8.63;;;;;;;26.71;64.04;94695.19;5052230;28;20551;-83
2022/07/25 01:26:38;;;;;;;9.70;8.88;;;;;;;26.68;64.66;94693.00;5051873;28;20651;-81
2022/07/25 01:29:05;;;;;;;10.52;8.75;;;;;;;26.66;64.72;94695.09;5051717;28;20202;-81
2022/07/25 01:31:32;;;;;;;11.35;9.80;;;;;;;26.64;65.27;94691.94;5051820;28;20205;-81
2022/07/25 01:33:59;;;;;;;9.75;8.73;;;;;;;26.49;65.44;94668.06;5051601;28;20199;-82
2022/07/25 01:36:26;;;;;;;9.77;8.88;;;;;;;26.63;65.41;94692.16;5051549;28;20201;-81
2022/07/25 01:38:54;;;;;;;9.77;8.82;;;;;;;26.61;65.24;94687.16;5051645;28;20567;-81
2022/07/25 01:41:21;;;;;;;10.45;9.40;;;;;;;26.59;65.57;94697.06;5051382;28;20195;-81
2022/07/25 01:43:48;;;;;;;10.07;9.07;;;;;;;26.47;65.13;94678.78;5051595;28;20663;-80
2022/07/25 01:46:15;;;;;;;12.90;9.52;;;;;;;26.57;64.89;94699.16;5051097;28;20195;-82
2022/07/25 01:48:42;;;;;;;10.30;9.40;;;;;;;26.59;64.59;94698.91;5051868;28;20187;-81
2022/07/25 01:51:10;;;;;;;8.98;8.07;;;;;;;26.25;63.75;94646.38;5051211;28;20233;-83
2022/07/25 01:53:37;;;;;;;9.90;8.55;;;;;;;26.22;63.42;94650.28;5051440;28;20245;-81
2022/07/25 01:56:06;;;;;;;9.77;8.35;;;;;;;26.19;63.27;94642.09;5052020;28;20191;-82
2022/07/25 01:58:33;;;;;;;10.30;9.30;;;;;;;26.61;62.86;94707.34;5051770;28;20685;-81
2022/07/25 02:01:00;;;;;;;9.18;8.32;;;;;;;26.49;63.41;94689.84;5051607;28;20203;-81
2022/07/25 02:03:30;;;;;;;11.27;8.23;;;;;;;26.58;63.42;94707.81;5051191;28;20194;-81
2022/07/25 02:05:57;;;;;;;10.93;8.32;;;;;;;26.57;62.96;94712.25;5052815;28;20191;-81
2022/07/25 02:08:24;;;;;;;9.48;8.57;;;;;;;26.57;63.18;94711.47;5052833;28;20199;-82
2022/07/25 02:10:52;;;;;;;9.15;8.25;;;;;;;26.56;63.67;94713.31;5051216;28;20220;-82
2022/07/25 02:13:20;;;;;;;10.25;9.15;;;;;;;26.56;63.99;94702.03;5051160;28;20187;-82
2022/07/25 02:15:47;;;;;;;10.07;9.05;;;;;;;26.52;63.85;94706.94;5051618;28;20179;-82
2022/07/25 02:18:14;;;;;;;10.45;9.45;;;;;;;26.13;64.30;94643.03;5050776;28;20230;-83
2022/07/25 02:20:41;;;;;;;11.85;9.30;;;;;;;26.35;64.39;94683.28;5051078;28;20190;-81
2022/07/25 02:23:08;;;;;;;10.05;9.13;;;;;;;26.40;64.84;94698.28;5051058;28;20217;-81
2022/07/25 02:25:36;;;;;;;11.70;9.13;;;;;;;26.18;65.30;94669.34;5050978;28;20199;-82
2022/07/25 02:28:02;;;;;;;13.93;9.68;;;;;;;26.44;65.25;94715.19;5051443;28;20195;-81
2022/07/25 02:30:31;;;;;;;14.25;9.50;;;;;;;26.41;65.59;94720.88;5050775;28;20222;-82
2022/07/25 02:32:58;;;;;;;10.02;9.05;;;;;;;25.62;65.62;94597.53;5050541;28;20578;-82
2022/07/25 02:35:26;;;;;;;11.77;8.95;;;;;;;26.21;65.60;94692.47;5050837;28;20700;-82
2022/07/25 02:37:52;;;;;;;12.45;8.68;;;;;;;26.35;65.37;94713.94;5050901;28;20190;-82
2022/07/25 02:40:19;;;;;;;10.65;8.90;;;;;;;26.31;65.17;94711.00;5050746;28;20197;-83
2022/07/25 02:42:46;;;;;;;9.68;8.57;;;;;;;26.22;64.55;94691.44;5050628;28;20191;-82
2022/07/25 02:45:13;;;;;;;10.32;9.27;;;;;;;26.26;64.01;94703.84;5051070;28;20202;-82
2022/07/25 02:47:42;;;;;;;9.88;8.93;;;;;;;26.22;64.61;94709.78;5050465;28;20187;-83
2022/07/25 02:50:09;;;;;;;9.48;8.57;;;;;;;26.06;63.92;94681.69;5050383;28;20232;-81
2022/07/25 02:52:36;;;;;;;9.40;7.80;;;;;;;26.19;64.00;94710.25;5050545;28;20242;-81
2022/07/25 02:55:04;;;;;;;9.00;8.10;;;;;;;26.16;63.69;94711.50;5050529;28;20213;-82
2022/07/25 02:57:31;;;;;;;9.18;8.27;;;;;;;26.13;63.63;94714.59;5050106;28;20274;-83
2022/07/25 02:59:58;;;;;;;10.77;8.55;;;;;;;26.10;63.59;94709.81;5049819;28;20187;-82
2022/07/25 03:02:25;;;;;;;9.50;8.30;;;;;;;25.87;63.79;94681.88;5050087;28;20674;-83
2022/07/25 03:04:53;;;;;;;8.95;8.05;;;;;;;25.91;63.36;94684.84;5049924;28;20186;-81
2022/07/25 03:07:20;;;;;;;13.65;8.50;;;;;;;26.03;62.76;94711.78;5049793;28;20191;-83
2022/07/25 03:09:46;;;;;;;9.07;8.18;;;;;;;25.79;62.60;94681.44;5049863;28;20728;-81
2022/07/25 03:12:13;;;;;;;9.35;8.35;;;;;;;25.96;62.83;94711.94;5050146;28;20197;-81
2022/07/25 03:14:40;;;;;;;8.48;7.75;;;;;;;25.94;62.70;94710.56;5049773;28;20180;-80
2022/07/25 03:17:07;;;;;;;9.93;7.70;;;;;;;25.92;62.48;94718.66;5050396;28;20190;-81
2022/07/25 03:19:34;;;;;;;9.25;7.72;;;;;;;25.90;62.44;94715.47;5049629;28;20472;-81
2022/07/25 03:22:02;;;;;;;8.65;7.43;;;;;;;25.08;62.18;94589.91;5049894;28;20195;-81
2022/07/25 03:24:29;;;;;;;10.90;7.93;;;;;;;25.88;62.00;94720.16;5056911;28;20217;-82
2022/07/25 03:26:56;;;;;;;9.02;7.47;;;;;;;25.72;61.86;94692.81;5049896;28;20684;-81
2022/07/25 03:29:23;;;;;;;9.57;8.27;;;;;;;25.71;62.01;94698.28;5050203;28;20195;-81
2022/07/25 03:31:50;;;;;;;7.80;7.10;;;;;;;25.84;61.53;94720.84;5049986;28;20237;-81
2022/07/25 03:34:17;;;;;;;8.57;7.78;;;;;;;25.82;61.75;94720.25;5049767;28;20191;-82
2022/07/25 03:36:43;;;;;;;8.73;7.57;;;;;;;25.80;61.49;94717.88;5049747;28;20270;-81
2022/07/25 03:39:13;;;;;;;10.30;8.65;;;;;;;25.79;61.60;94716.31;5050028;28;20202;-83
2022/07/25 03:41:40;;;;;;;9.75;7.07;;;;;;;25.36;61.33;94653.84;5049896;28;20188;-83
2022/07/25 03:44:07;;;;;;;8.05;7.25;;;;;;;25.75;61.54;94715.16;5049839;28;20179;-81
2022/07/25 03:46:33;;;;;;;11.55;8.82;;;;;;;25.39;61.26;94655.97;5049904;28;20187;-82
2022/07/25 03:49:01;;;;;;;11.02;7.50;;;;;;;25.59;61.41;94692.28;5049952;28;20195;-81
2022/07/25 03:51:27;;;;;;;8.68;7.60;;;;;;;25.73;61.24;94720.63;5049610;28;20225;-84
2022/07/25 03:54:03;;;;;;;8.23;7.53;;;;;;;25.57;61.32;94696.97;5050045;28;20194;-82
2022/07/25 03:56:35;;;;;;;9.07;7.53;;;;;;;25.72;61.60;94726.06;5049454;28;20686;-82
2022/07/25 03:59:02;;;;;;;8.57;7.68;;;;;;;25.71;61.28;94724.50;5049816;28;20188;-82
2022/07/25 04:01:29;;;;;;;8.50;7.60;;;;;;;25.70;61.33;94721.06;5049662;28;20180;-83
2022/07/25 04:03:56;;;;;;;9.68;7.75;;;;;;;25.71;61.33;94730.53;5049887;28;20198;-83
2022/07/25 04:06:23;;;;;;;8.93;8.13;;;;;;;25.30;61.08;94667.84;5049443;28;20202;-85
2022/07/25 04:08:51;;;;;;;8.55;7.20;;;;;;;25.71;60.79;94727.09;5056467;28;20195;-82
2022/07/25 04:11:18;;;;;;;8.45;7.68;;;;;;;25.71;60.57;94727.09;5053543;28;20222;-82
2022/07/25 04:13:46;;;;;;;7.78;7.07;;;;;;;25.71;61.07;94721.88;5053357;28;20214;-82
2022/07/25 04:16:13;;;;;;;11.43;7.22;;;;;;;25.72;60.81;94734.72;5053547;28;20191;-83
2022/07/25 04:18:40;;;;;;;10.75;7.90;;;;;;;25.73;61.14;94730.28;5052744;28;20231;-82
2022/07/25 04:21:08;;;;;;;11.07;7.47;;;;;;;25.72;60.76;94733.94;5053031;28;20708;-82
2022/07/25 04:23:35;;;;;;;10.95;6.65;;;;;;;24.69;60.72;94554.78;5053105;28;20184;-82
2022/07/25 04:26:02;;;;;;;12.65;7.78;;;;;;;25.55;60.42;94685.91;5053653;28;20578;-82
2022/07/25 04:28:29;;;;;;;9.07;7.47;;;;;;;25.77;60.61;94719.13;5053062;28;20199;-82
2022/07/25 04:30:57;;;;;;;7.97;7.18;;;;;;;25.69;60.13;94703.78;5053042;28;20227;-84
2022/07/25 04:33:24;;;;;;;8.70;7.88;;;;;;;25.83;60.00;94719.25;5052727;28;20234;-83
2022/07/25 04:35:51;;;;;;;9.27;7.20;;;;;;;24.97;60.16;94582.84;5053460;28;20187;-82
2022/07/25 04:38:18;;;;;;;7.63;6.72;;;;;;;25.52;59.76;94666.22;5052736;28;20256;-83
2022/07/25 04:40:45;;;;;;;8.68;6.82;;;;;;;25.50;59.49;94655.97;5053277;28;20187;-82
2022/07/25 04:43:12;;;;;;;7.75;7.05;;;;;;;25.91;59.53;94719.69;5052696;28;20198;-83
2022/07/25 04:45:39;;;;;;;7.47;6.68;;;;;;;25.94;59.41;94713.19;5053171;28;20251;-82
2022/07/25 04:48:08;;;;;;;12.00;7.97;;;;;;;25.86;59.26;94695.19;5053246;28;20206;-82
2022/07/25 04:50:35;;;;;;;7.75;6.72;;;;;;;25.71;59.25;94672.88;5055052;28;20245;-82
2022/07/25 04:53:01;;;;;;;7.60;6.90;;;;;;;26.04;59.44;94718.63;5059481;28;20201;-80
2022/07/25 04:55:28;;;;;;;8.40;6.80;;;;;;;26.08;59.29;94721.56;5059328;28;20259;-81
2022/07/25 04:57:55;;;;;;;8.70;6.88;;;;;;;26.09;59.22;94721.34;5066770;28;20648;-81
2022/07/25 05:00:23;;;;;;;7.85;7.15;;;;;;;26.12;59.31;94722.69;5071868;28;20201;-82
2022/07/25 05:02:50;;;;;;;9.63;7.10;;;;;;;25.39;58.95;94595.75;5071843;28;20199;-82
2022/07/25 05:05:19;;;;;;;7.22;6.40;;;;;;;26.15;58.98;94709.91;5070849;28;20198;-81
2022/07/25 05:07:46;;;;;;;7.78;7.07;;;;;;;26.25;59.17;94719.78;5070660;28;20179;-82
2022/07/25 05:10:13;;;;;;;8.05;7.38;;;;;;;26.31;59.07;94721.47;5060867;28;20689;-84
2022/07/25 05:12:40;;;;;;;7.78;6.97;;;;;;;26.06;59.19;94663.34;5054356;28;20205;-81
2022/07/25 05:15:08;;;;;;;11.27;6.47;;;;;;;26.49;59.34;94718.69;5053285;28;20199;-81
2022/07/25 05:17:35;;;;;;;7.15;6.47;;;;;;;26.60;57.80;94718.84;5056947;28;20227;-84
2022/07/25 05:20:02;;;;;;;9.82;7.00;;;;;;;26.68;58.06;94718.47;5053063;28;20222;-82
2022/07/25 05:22:30;;;;;;;10.35;7.03;;;;;;;26.51;58.77;94669.44;5051678;28;20623;-85
2022/07/25 05:24:57;;;;;;;7.38;6.68;;;;;;;26.70;58.25;94679.69;5051939;28;20552;-84
2022/07/25 05:27:24;;;;;;;6.38;5.88;;;;;;;26.95;57.50;94697.66;5056038;28;20273;-82
2022/07/25 05:29:51;;;;;;;8.35;6.65;;;;;;;27.10;57.25;94699.72;5051557;28;20183;-85
2022/07/25 05:32:18;;;;;;;8.50;6.93;;;;;;;27.42;56.18;94728.84;5060103;28;20214;-84
2022/07/25 05:34:45;;;;;;;8.13;6.68;;;;;;;27.25;55.77;94679.75;5071233;28;20643;-83
2022/07/25 05:37:12;;;;;;;7.93;6.43;;;;;;;27.68;55.65;94732.59;5072567;28;20236;-82
2022/07/25 05:39:40;;;;;;;10.60;6.80;;;;;;;27.82;54.42;94725.16;5073242;28;20190;-83
2022/07/25 05:42:07;;;;;;;7.10;6.40;;;;;;;27.81;55.01;94713.88;5071512;28;20194;-85
2022/07/25 05:44:34;;;;;;;6.82;6.15;;;;;;;26.98;54.04;94566.69;5062948;28;20197;-86
2022/07/25 05:47:01;;;;;;;6.75;6.15;;;;;;;28.15;54.48;94734.75;5052282;28;20186;-85
2022/07/25 05:49:28;;;;;;;8.55;6.80;;;;;;;28.27;52.99;94722.25;5052549;28;20191;-82
2022/07/25 05:51:55;;;;;;;7.18;6.47;;;;;;;28.38;53.31;94726.63;5052706;28;20313;-87
2022/07/25 05:54:22;;;;;;;6.63;6.03;;;;;;;28.49;53.19;94730.91;5061951;28;20179;-83
2022/07/25 05:56:50;;;;;;;6.78;6.20;;;;;;;28.53;52.38;94714.63;5055827;28;20197;-82
2022/07/25 05:59:17;;;;;;;6.38;5.70;;;;;;;28.19;50.68;94641.16;5058005;28;20205;-83
2022/07/25 06:01:44;;;;;;;7.22;6.45;;;;;;;28.78;50.77;94724.59;5057053;28;20191;-83
2022/07/25 06:04:11;;;;;;;6.95;6.25;;;;;;;28.84;51.44;94724.38;5056816;28;20199;-81
2022/07/25 06:06:38;;;;;;;7.18;6.47;;;;;;;28.92;51.24;94715.22;5055948;28;20217;-81
2022/07/25 06:09:05;;;;;;;6.57;5.95;;;;;;;28.99;50.53;94718.50;5054443;28;20195;-81
2022/07/25 06:11:32;;;;;;;7.53;6.80;;;;;;;28.41;50.48;94617.44;5060891;28;20720;-85
2022/07/25 06:14:00;;;;;;;6.18;5.68;;;;;;;28.84;50.55;94661.19;5061561;28;20661;-84
2022/07/25 06:16:27;;;;;;;9.32;6.63;;;;;;;29.24;49.99;94718.66;5066859;28;20377;-86
2022/07/25 06:18:54;;;;;;;6.68;6.07;;;;;;;29.33;49.54;94715.56;5068260;28;20237;-87
2022/07/25 06:21:21;;;;;;;7.05;6.45;;;;;;;29.04;49.02;94660.59;5082091;28;20186;-84
2022/07/25 06:23:48;;;;;;;7.35;6.63;;;;;;;29.46;49.36;94717.75;5081453;28;20190;-85
2022/07/25 06:26:15;;;;;;;7.07;6.38;;;;;;;29.09;49.26;94650.06;5073255;28;20213;-85
2022/07/25 06:28:42;;;;;;;7.38;6.68;;;;;;;29.29;48.37;94664.44;5079446;28;20186;-86
2022/07/25 06:31:10;;;;;;;7.68;6.43;;;;;;;29.69;49.21;94722.63;5037772;28;20211;-86
2022/07/25 06:33:37;;;;;;;6.57;5.93;;;;;;;29.78;49.09;94712.38;5045048;28;20179;-83
2022/07/25 06:36:05;;;;;;;6.85;6.25;;;;;;;29.87;49.03;94710.06;5047889;28;20225;-84
2022/07/25 06:38:32;;;;;;;7.05;6.30;;;;;;;29.96;49.00;94711.13;5051281;28;20176;-82
2022/07/25 06:40:59;;;;;;;7.00;6.40;;;;;;;29.62;48.43;94640.38;5050680;28;20199;-85
2022/07/25 06:43:26;;;;;;;6.20;5.65;;;;;;;29.91;48.80;94679.47;5053018;28;20202;-85
2022/07/25 06:45:52;;;;;;;6.60;6.00;;;;;;;30.06;48.47;94684.81;5043022;28;20188;-83
2022/07/25 06:48:23;;;;;;;7.30;6.45;;;;;;;30.31;48.23;94710.50;5043603;28;20199;-85
2022/07/25 06:50:50;;;;;;;6.13;5.53;;;;;;;30.38;47.82;94711.03;5044813;28;20575;-83
2022/07/25 06:53:16;;;;;;;6.15;5.55;;;;;;;29.77;47.02;94600.06;5042511;28;20211;-84
2022/07/25 06:55:44;;;;;;;7.15;6.50;;;;;;;30.57;46.67;94702.59;5035420;28;20196;-87
2022/07/25 06:58:12;;;;;;;6.55;5.85;;;;;;;30.64;47.38;94697.88;5036307;28;20245;-89
2022/07/25 07:00:39;;;;;;;7.68;6.82;;;;;;;30.75;46.64;94696.84;5014846;28;20741;-86
2022/07/25 07:03:06;;;;;;;7.25;6.47;;;;;;;30.85;47.22;94701.34;5028973;28;20191;-86
2022/07/25 07:05:36;;;;;;;8.80;6.57;;;;;;;30.64;45.12;94660.91;5030420;28;20195;-87
2022/07/25 07:08:03;;;;;;;10.10;6.78;;;;;;;30.99;46.38;94705.03;5028731;28;20249;-83
2022/07/25 07:10:31;;;;;;;7.70;7.03;;;;;;;31.06;44.99;94700.28;5031250;28;20204;-88
2022/07/25 07:13:08;;;;;;;6.38;5.88;;;;;;;31.09;45.42;94699.75;5029709;28;20218;-87
2022/07/25 07:15:36;;;;;;;8.82;6.57;;;;;;;31.18;45.27;94700.00;5031421;28;20206;-86
2022/07/25 07:18:03;;;;;;;8.27;6.70;;;;;;;31.09;45.16;94678.63;5031938;28;20651;-89
2022/07/25 07:20:30;;;;;;;7.68;6.93;;;;;;;31.28;45.00;94681.50;5044814;28;20186;-90
2022/07/25 07:22:59;;;;;;;7.63;5.95;;;;;;;30.90;44.77;94611.53;5073689;28;20182;-87
2022/07/25 07:25:26;;;;;;;6.68;6.13;;;;;;;30.41;44.00;94522.34;5056283;28;20588;-88
2022/07/25 07:27:53;;;;;;;7.10;6.07;;;;;;;31.57;42.74;94694.13;5087530;28;20190;-87
2022/07/25 07:30:20;;;;;;;7.60;6.45;;;;;;;30.38;42.65;94507.03;5087043;28;20253;-87
2022/07/25 07:32:47;;;;;;;7.03;6.32;;;;;;;30.77;43.32;94562.69;5072982;28;20589;-85
2022/07/25 07:35:17;;;;;;;7.07;6.38;;;;;;;30.97;43.29;94589.06;5068225;28;20198;-87
2022/07/25 07:37:45;;;;;;;10.00;6.65;;;;;;;31.76;42.64;94691.69;5070284;28;20572;-88
2022/07/25 07:40:15;;;;;;;7.78;6.18;;;;;;;31.59;43.00;94655.75;5068275;28;20204;-84
2022/07/25 07:42:44;;;;;;;6.82;6.22;;;;;;;31.77;42.77;94669.44;5067422;28;20229;-84
2022/07/25 07:45:13;;;;;;;7.55;6.68;;;;;;;31.33;42.13;94591.63;5070067;28;20194;-88
2022/07/25 07:47:40;;;;;;;7.90;6.65;;;;;;;31.20;41.31;94590.31;5071523;28;20185;-84
2022/07/25 07:50:08;;;;;;;6.78;6.18;;;;;;;32.02;41.63;94693.16;5071721;28;20752;-83
2022/07/25 07:52:36;;;;;;;7.22;6.50;;;;;;;32.04;40.58;94696.34;5071878;28;20317;-83
2022/07/25 07:57:50;;;;;;;7.63;6.93;;;;;;;31.94;41.58;94676.00;5073818;28;21017;-87
2022/07/25 08:00:20;;;;;;;8.43;6.22;;;;;;;32.04;41.26;94691.06;5082524;28;20198;-85
2022/07/25 08:02:49;;;;;;;7.28;6.65;;;;;;;31.94;40.68;94676.00;5083183;28;20194;-84
2022/07/25 08:05:21;;;;;;;7.18;6.50;;;;;;;31.70;40.19;94630.09;5072491;28;20186;-84
2022/07/25 08:07:50;;;;;;;7.30;6.28;;;;;;;32.15;40.72;94689.13;5071808;28;20197;-83
2022/07/25 08:10:19;;;;;;;6.78;6.10;;;;;;;32.18;40.51;94689.38;5071117;28;20190;-82
2022/07/25 08:12:45;;;;;;;8.98;6.80;;;;;;;32.14;40.96;94690.22;5071798;28;20217;-79
2022/07/25 08:15:14;;;;;;;8.00;6.78;;;;;;;32.16;41.08;94688.06;5071097;28;20672;-81
2022/07/25 08:17:42;;;;;;;9.15;6.53;;;;;;;32.20;41.17;94689.91;5070201;28;20752;-83
2022/07/25 08:20:11;;;;;;;7.63;6.15;;;;;;;32.06;41.23;94659.03;5069886;28;20221;-84
2022/07/25 08:22:39;;;;;;;8.60;7.25;;;;;;;32.16;41.21;94670.34;5050574;28;20913;-83
2022/07/25 08:25:10;;;;;;;7.75;6.65;;;;;;;32.32;40.26;94686.13;5051050;28;20179;-83
2022/07/25 08:27:37;;;;;;;7.25;6.55;;;;;;;32.35;40.83;94689.03;5050443;28;20254;-82
2022/07/25 08:30:06;;;;;;;7.00;6.30;;;;;;;32.36;40.50;94685.31;5051611;28;20599;-83
2022/07/25 08:32:45;;;;;;;6.95;6.28;;;;;;;32.38;40.43;94688.50;5051019;28;20218;-86
2022/07/25 08:35:12;;;;;;;7.32;6.53;;;;;;;32.42;39.91;94688.72;5051572;28;20198;-86
2022/07/25 08:37:39;;;;;;;7.18;6.45;;;;;;;32.40;40.16;94678.44;5051146;28;20677;-87
2022/07/25 08:40:07;;;;;;;7.45;6.63;;;;;;;32.45;40.58;94681.03;5054384;28;20214;-90
2022/07/25 08:42:34;;;;;;;7.82;6.60;;;;;;;32.49;39.92;94691.09;5051017;28;20561;-83
2022/07/25 08:45:05;;;;;;;7.03;6.30;;;;;;;32.47;40.23;94689.50;5050728;28;20194;-83
2022/07/25 08:47:33;;;;;;;6.40;5.85;;;;;;;32.49;40.25;94688.44;5050088;28;20203;-84
2022/07/25 08:50:03;;;;;;;6.63;6.03;;;;;;;32.52;38.77;94690.53;5051241;28;20238;-83
2022/07/25 08:52:33;;;;;;;6.60;6.00;;;;;;;32.52;39.41;94691.34;5051503;28;20261;-90
2022/07/25 08:55:01;;;;;;;6.80;6.13;;;;;;;32.55;37.71;94680.16;5049961;28;20570;-84
2022/07/25 08:57:28;;;;;;;7.25;6.15;;;;;;;32.57;37.85;94679.91;5050068;28;20197;-86
2022/07/25 08:59:57;;;;;;;6.43;5.93;;;;;;;32.44;38.11;94654.84;5052076;28;20191;-88
2022/07/25 09:02:25;;;;;;;9.18;6.57;;;;;;;31.79;38.27;94566.84;5052650;28;20568;-87
2022/07/25 09:04:52;;;;;;;7.85;6.15;;;;;;;32.45;38.38;94674.97;5051285;28;20269;-85
2022/07/25 09:07:31;;;;;;;6.60;6.03;;;;;;;32.45;38.63;94674.97;5050538;28;20187;-85
2022/07/25 09:09:58;;;;;;;7.30;5.50;;;;;;;32.44;38.33;94676.03;5049887;28;20640;-85
2022/07/25 09:12:27;;;;;;;6.88;6.20;;;;;;;32.48;38.67;94671.75;5050453;28;20230;-84
2022/07/25 09:14:54;;;;;;;6.38;5.78;;;;;;;32.50;39.37;94669.63;5050101;28;20195;-88
2022/07/25 09:17:21;;;;;;;9.20;7.10;;;;;;;32.52;39.51;94670.16;5050908;28;20203;-83
2022/07/25 09:19:59;;;;;;;7.10;6.50;;;;;;;32.56;38.42;94665.88;5070061;28;20196;-88
2022/07/25 09:22:26;;;;;;;6.72;6.00;;;;;;;32.58;38.38;94650.50;5029850;28;20223;-85
2022/07/25 09:24:54;;;;;;;6.85;6.25;;;;;;;32.40;38.32;94637.94;5029442;28;20253;-86
2022/07/25 09:27:22;;;;;;;7.53;6.20;;;;;;;31.83;38.87;94541.41;5029867;28;20673;-88
2022/07/25 09:29:49;;;;;;;7.15;6.38;;;;;;;32.32;38.54;94614.66;5031930;28;20196;-84
2022/07/25 09:32:18;;;;;;;6.90;6.03;;;;;;;32.41;37.84;94629.69;5053827;28;20227;-90
2022/07/25 09:34:46;;;;;;;6.88;6.28;;;;;;;32.53;38.60;94663.78;5053713;28;20199;-86
2022/07/25 09:37:15;;;;;;;7.78;6.07;;;;;;;32.53;38.45;94647.88;5052398;28;20268;-84
2022/07/25 09:39:45;;;;;;;8.20;6.25;;;;;;;32.54;38.84;94654.75;5051188;28;20191;-84
2022/07/25 09:42:21;;;;;;;6.80;6.22;;;;;;;32.57;39.00;94650.78;5051456;28;20192;-82
2022/07/25 09:45:03;;;;;;;6.22;5.72;;;;;;;32.45;38.21;94648.47;5051474;28;20205;-83
2022/07/25 09:47:31;;;;;;;7.00;6.40;;;;;;;32.51;37.38;94657.94;5046470;28;20192;-82
2022/07/25 09:49:58;;;;;;;7.65;6.80;;;;;;;32.46;37.39;94642.09;5029221;28;20247;-84
2022/07/25 09:52:25;;;;;;;7.75;6.30;;;;;;;32.33;38.16;94629.47;5029359;28;20216;-82
2022/07/25 09:54:53;;;;;;;7.10;6.18;;;;;;;32.48;38.60;94653.22;5028448;28;20647;-81
2022/07/25 09:57:22;;;;;;;7.13;6.38;;;;;;;32.49;38.25;94649.50;5029519;28;20637;-81
2022/07/25 09:59:49;;;;;;;8.90;5.90;;;;;;;32.46;38.74;94644.75;5028817;28;20206;-84
2022/07/25 10:02:27;;;;;;;9.68;6.45;;;;;;;30.91;38.80;94396.53;5028829;28;20574;-86
2022/07/25 10:05:06;;;;;;;12.88;6.82;;;;;;;32.46;39.05;94632.31;5029398;28;20191;-83
2022/07/25 10:07:36;;;;;;;10.40;6.28;;;;;;;32.47;39.22;94635.75;5029318;28;20195;-89
2022/07/25 10:10:04;;;;;;;7.28;6.22;;;;;;;32.50;39.13;94634.41;5029099;28;20188;-87
2022/07/25 10:12:32;;;;;;;9.68;6.55;;;;;;;32.51;38.77;94631.47;5030429;28;20597;-89
2022/07/25 10:15:10;;;;;;;7.32;6.18;;;;;;;32.51;38.51;94633.34;5031847;28;20184;-86
2022/07/25 10:17:38;;;;;;;6.15;5.63;;;;;;;32.51;38.58;94635.97;5030404;28;20227;-88
2022/07/25 10:20:08;;;;;;;9.07;5.78;;;;;;;31.71;37.62;94513.44;5031678;28;20202;-88
2022/07/25 10:22:43;;;;;;;10.52;5.50;;;;;;;31.86;38.49;94533.72;5070531;28;20665;-88
2022/07/25 10:25:13;;;;;;;10.48;5.90;;;;;;;32.47;38.20;94625.16;5076225;28;20253;-86
2022/07/25 10:27:47;;;;;;;6.40;5.47;;;;;;;31.71;36.50;94497.56;5079330;28;20191;-90
2022/07/25 10:30:22;;;;;;;6.20;5.57;;;;;;;32.52;36.95;94616.41;5070500;28;20192;-89
2022/07/25 10:32:58;;;;;;;7.05;6.40;;;;;;;31.95;36.95;94549.81;5069852;28;20226;-88
2022/07/25 10:35:25;;;;;;;6.88;6.20;;;;;;;32.38;35.97;94619.66;5069535;28;20656;-89
2022/07/25 10:37:54;;;;;;;5.70;5.22;;;;;;;32.34;36.23;94615.16;5069072;28;20722;-88
2022/07/25 10:40:29;;;;;;;8.38;6.25;;;;;;;32.09;36.46;94571.94;5070984;28;20194;-91
2022/07/25 10:43:02;;;;;;;9.65;6.05;;;;;;;32.32;36.78;94618.09;5073749;28;20224;-89
2022/07/25 10:45:38;;;;;;;6.82;5.28;;;;;;;31.69;37.09;94533.28;5070740;28;20289;-87
2022/07/25 10:48:21;;;;;;;8.90;5.95;;;;;;;32.03;36.15;94586.25;5069557;28;20190;-87
2022/07/25 10:50:50;;;;;;;7.40;5.82;;;;;;;32.25;36.34;94619.47;5068967;28;20758;-88
2022/07/25 10:53:37;;;;;;;5.72;5.22;;;;;;;32.19;36.34;94608.13;5068506;28;20217;-89
2022/07/25 10:56:07;;;;;;;6.53;5.93;;;;;;;32.19;36.29;94619.50;5068367;28;20182;-83
2022/07/25 10:58:48;;;;;;;8.02;5.70;;;;;;;32.16;36.40;94612.09;5067792;28;20201;-86
2022/07/25 11:01:20;;;;;;;6.43;5.82;;;;;;;32.14;36.39;94611.59;5068799;28;20654;-90
2022/07/25 11:03:47;;;;;;;7.82;5.40;;;;;;;31.35;36.82;94467.94;5070601;28;20194;-87
2022/07/25 11:06:15;;;;;;;6.25;5.65;;;;;;;32.21;36.04;94595.41;5068298;28;20197;-85
2022/07/25 11:08:43;;;;;;;6.57;5.60;;;;;;;32.01;36.12;94561.94;5067846;28;20187;-84
2022/07/25 11:11:10;;;;;;;5.78;5.25;;;;;;;31.62;35.25;94499.22;5068103;28;20700;-86
2022/07/25 11:13:38;;;;;;;6.07;5.57;;;;;;;32.27;34.90;94589.03;5074804;28;20214;-86
2022/07/25 11:16:08;;;;;;;5.63;5.10;;;;;;;31.72;34.64;94503.66;5068401;28;20186;-85
2022/07/25 11:18:41;;;;;;;6.22;5.30;;;;;;;31.94;35.45;94538.44;5067977;28;20233;-88
2022/07/25 11:21:09;;;;;;;6.15;5.28;;;;;;;31.83;35.03;94517.63;5063724;28;20187;-89
2022/07/25 11:23:36;;;;;;;6.18;5.68;;;;;;;31.90;35.17;94524.19;5049511;28;20566;-89
2022/07/25 11:26:11;;;;;;;6.97;5.38;;;;;;;31.58;35.04;94463.03;5051044;28;20200;-87
2022/07/25 11:28:44;;;;;;;6.10;5.03;;;;;;;32.35;35.18;94575.19;5048505;28;20205;-84
2022/07/25 11:31:13;;;;;;;6.38;5.68;;;;;;;31.94;35.04;94511.97;5047535;28;20203;-85
2022/07/25 11:33:43;;;;;;;5.70;5.30;;;;;;;31.67;35.51;94461.38;5047228;28;20249;-87
2022/07/25 11:36:11;;;;;;;6.03;5.53;;;;;;;32.41;35.42;94560.88;5047974;28;20187;-86
2022/07/25 11:38:38;;;;;;;7.45;5.75;;;;;;;31.91;35.04;94478.16;5047627;28;20621;-88